Oceanville, New Jersey
Current Conditions -  °F | °C
As of 2:54 PM on Thursday 27 Nov 2014 (Local Time) from KACY Reporting Station
Few Clouds Few Clouds  
Wind Chill: 36°   Ceiling: Unl
Heat Index: 43°   Visibility: 10mi
Dew Point: 31°   Wind: 14mph
Humidity: 62%   Direction: 320°NW
Pressure: 29.99"   Gusts: NA
Location:  39.47°N, 74.46°W
Report Text: KACY 271954Z 32012KT 10SM FEW029 06/M01 A2999 RMK AO2 SLP156 T00611006
Loading
Personal Weather Stations






























Interactive Weather Map New forecast layout! Learn more

10-Day Weather Forecast

Advertisements
Track Severe Weather on mobile